HBZNH LSXS-LSZH
Flight info
| Callsign | HBZNH |
|---|---|
| Flight time | 0h 11m |
| Altitude | 4000 |
| Route | LSXS LSZH LSXS |
| Aircraft | AS50/L-VGD/C |
Departure
| Time | 2026-04-26 14:09 |
|---|---|
| Airport | Schindellegi Heliport (LSXS) |
Arrival
| Time | 2026-04-26 14:20 |
|---|---|
| Airport | Zürich Airport (LSZH) |
| Time | Latitude | Longitude | Altitude | Speed | Heading |
|---|---|---|---|---|---|
| 2026-04-26 13:59 | 47.17012 | 8.71442 | 2610 ft | 0 kts | 210° |
| 2026-04-26 14:07 | 47.17009 | 8.71441 | 2601 ft | 3 kts | 191° |
| 2026-04-26 14:07 | 47.17014 | 8.71440 | 2620 ft | 2 kts | 126° |
| 2026-04-26 14:08 | 47.17017 | 8.71427 | 2603 ft | 5 kts | 309° |
| 2026-04-26 14:08 | 47.17045 | 8.71437 | 2624 ft | 25 kts | 59° |
| 2026-04-26 14:08 | 47.17134 | 8.71970 | 2741 ft | 71 kts | 81° |
| 2026-04-26 14:08 | 47.17436 | 8.72538 | 3013 ft | 85 kts | 15° |
| 2026-04-26 14:09 | 47.18069 | 8.72191 | 3049 ft | 113 kts | 323° |
| 2026-04-26 14:09 | 47.18646 | 8.71325 | 3089 ft | 122 kts | 309° |
| 2026-04-26 14:09 | 47.19159 | 8.70308 | 3235 ft | 126 kts | 305° |
| 2026-04-26 14:09 | 47.19624 | 8.69206 | 3317 ft | 127 kts | 304° |
| 2026-04-26 14:10 | 47.20097 | 8.68097 | 3435 ft | 128 kts | 305° |
| 2026-04-26 14:10 | 47.20594 | 8.67026 | 3513 ft | 128 kts | 309° |
| 2026-04-26 14:10 | 47.21114 | 8.65939 | 3566 ft | 134 kts | 308° |
| 2026-04-26 14:10 | 47.21687 | 8.64855 | 3521 ft | 133 kts | 312° |
| 2026-04-26 14:11 | 47.22943 | 8.62791 | 3425 ft | 135 kts | 315° |
| 2026-04-26 14:11 | 47.23595 | 8.61756 | 3411 ft | 141 kts | 315° |
| 2026-04-26 14:11 | 47.24282 | 8.60741 | 3408 ft | 140 kts | 318° |
| 2026-04-26 14:12 | 47.24986 | 8.59716 | 3408 ft | 141 kts | 321° |
| 2026-04-26 14:12 | 47.25749 | 8.58772 | 3328 ft | 145 kts | 324° |
| 2026-04-26 14:12 | 47.26545 | 8.57875 | 3244 ft | 146 kts | 326° |
| 2026-04-26 14:12 | 47.27357 | 8.57042 | 3234 ft | 140 kts | 327° |
| 2026-04-26 14:13 | 47.28912 | 8.55358 | 3244 ft | 132 kts | 327° |
| 2026-04-26 14:13 | 47.29652 | 8.54591 | 3286 ft | 131 kts | 329° |
| 2026-04-26 14:13 | 47.30406 | 8.53844 | 3284 ft | 129 kts | 329° |
| 2026-04-26 14:14 | 47.31165 | 8.53127 | 3375 ft | 128 kts | 332° |
| 2026-04-26 14:14 | 47.31939 | 8.52407 | 3399 ft | 134 kts | 332° |
| 2026-04-26 14:14 | 47.32749 | 8.51690 | 3388 ft | 135 kts | 332° |
| 2026-04-26 14:14 | 47.33549 | 8.51006 | 3387 ft | 131 kts | 331° |
| 2026-04-26 14:15 | 47.34334 | 8.50358 | 3463 ft | 128 kts | 332° |
| 2026-04-26 14:15 | 47.35098 | 8.49717 | 3609 ft | 124 kts | 332° |
| 2026-04-26 14:15 | 47.35811 | 8.48965 | 3642 ft | 129 kts | 324° |
| 2026-04-26 14:15 | 47.36511 | 8.48082 | 3550 ft | 135 kts | 322° |
| 2026-04-26 14:16 | 47.37241 | 8.47199 | 3468 ft | 137 kts | 325° |
| 2026-04-26 14:16 | 47.37982 | 8.46323 | 3370 ft | 137 kts | 322° |
| 2026-04-26 14:16 | 47.38675 | 8.45457 | 3147 ft | 137 kts | 326° |
| 2026-04-26 14:16 | 47.39470 | 8.44838 | 3072 ft | 124 kts | 346° |
| 2026-04-26 14:17 | 47.40300 | 8.44874 | 2853 ft | 119 kts | 14° |
| 2026-04-26 14:17 | 47.41039 | 8.45259 | 2760 ft | 106 kts | 26° |
| 2026-04-26 14:17 | 47.41573 | 8.45871 | 2710 ft | 93 kts | 46° |
| 2026-04-26 14:17 | 47.41911 | 8.46697 | 2518 ft | 95 kts | 62° |
| 2026-04-26 14:18 | 47.42183 | 8.47577 | 2379 ft | 94 kts | 65° |
| 2026-04-26 14:18 | 47.42409 | 8.48501 | 2325 ft | 95 kts | 69° |
| 2026-04-26 14:18 | 47.42590 | 8.49414 | 2319 ft | 90 kts | 72° |
| 2026-04-26 14:18 | 47.42756 | 8.50282 | 2274 ft | 86 kts | 71° |
| 2026-04-26 14:19 | 47.42889 | 8.51096 | 2332 ft | 75 kts | 72° |
| 2026-04-26 14:19 | 47.43052 | 8.51814 | 2296 ft | 76 kts | 71° |
| 2026-04-26 14:19 | 47.43192 | 8.52598 | 2137 ft | 82 kts | 75° |
| 2026-04-26 14:19 | 47.43374 | 8.53380 | 2039 ft | 81 kts | 58° |
| 2026-04-26 14:20 | 47.43720 | 8.54020 | 1925 ft | 79 kts | 41° |
| 2026-04-26 14:20 | 47.44168 | 8.54421 | 1722 ft | 68 kts | 19° |
| 2026-04-26 14:20 | 47.44586 | 8.54609 | 1534 ft | 54 kts | 17° |
| 2026-04-26 14:20 | 47.44866 | 8.54743 | 1432 ft | 30 kts | 18° |
| 2026-04-26 14:21 | 47.45005 | 8.54808 | 1409 ft | 12 kts | 13° |
| 2026-04-26 14:21 | 47.45045 | 8.54800 | 1399 ft | 3 kts | 256° |
| 2026-04-26 14:21 | 47.45049 | 8.54787 | 1388 ft | 0 kts | 283° |
| 2026-04-26 14:28 | 47.45056 | 8.54780 | 1395 ft | 7 kts | 95° |
| 2026-04-26 14:28 | 47.44911 | 8.54762 | 1433 ft | 62 kts | 192° |
| 2026-04-26 14:28 | 47.44344 | 8.54520 | 1580 ft | 96 kts | 188° |
| 2026-04-26 14:28 | 47.43669 | 8.54268 | 1854 ft | 109 kts | 200° |
| 2026-04-26 14:29 | 47.43225 | 8.53374 | 2141 ft | 115 kts | 256° |
| 2026-04-26 14:29 | 47.42998 | 8.52191 | 2245 ft | 123 kts | 257° |
| 2026-04-26 14:29 | 47.42766 | 8.50964 | 2365 ft | 125 kts | 258° |
| 2026-04-26 14:29 | 47.42521 | 8.49681 | 2408 ft | 135 kts | 256° |
| 2026-04-26 14:30 | 47.42184 | 8.48367 | 2460 ft | 140 kts | 242° |
| 2026-04-26 14:30 | 47.41473 | 8.47387 | 2410 ft | 143 kts | 211° |
| 2026-04-26 14:30 | 47.40572 | 8.46758 | 2394 ft | 143 kts | 197° |
| 2026-04-26 14:30 | 47.39578 | 8.46618 | 2368 ft | 144 kts | 176° |
| 2026-04-26 14:31 | 47.38675 | 8.46929 | 2557 ft | 128 kts | 157° |
| 2026-04-26 14:31 | 47.37898 | 8.47465 | 2798 ft | 121 kts | 146° |
| 2026-04-26 14:31 | 47.37178 | 8.48094 | 2987 ft | 120 kts | 146° |
| 2026-04-26 14:31 | 47.36477 | 8.48816 | 3141 ft | 128 kts | 139° |
| 2026-04-26 14:32 | 47.35912 | 8.49822 | 3217 ft | 131 kts | 112° |
| 2026-04-26 14:32 | 47.35762 | 8.51145 | 3138 ft | 135 kts | 88° |
| 2026-04-26 14:32 | 47.35936 | 8.52494 | 3013 ft | 133 kts | 72° |
| 2026-04-26 14:32 | 47.36314 | 8.53711 | 3001 ft | 129 kts | 60° |
| 2026-04-26 14:33 | 47.36777 | 8.54819 | 2980 ft | 126 kts | 59° |
| 2026-04-26 14:33 | 47.37168 | 8.55942 | 3015 ft | 120 kts | 61° |
| 2026-04-26 14:33 | 47.37545 | 8.57019 | 3136 ft | 116 kts | 70° |
| 2026-04-26 14:33 | 47.37537 | 8.58183 | 3216 ft | 118 kts | 105° |
| 2026-04-26 14:34 | 47.36951 | 8.59107 | 3239 ft | 130 kts | 141° |
| 2026-04-26 14:34 | 47.36194 | 8.59863 | 3215 ft | 130 kts | 142° |
| 2026-04-26 14:34 | 47.35456 | 8.60629 | 3255 ft | 129 kts | 140° |
| 2026-04-26 14:34 | 47.34740 | 8.61442 | 3267 ft | 130 kts | 142° |
| 2026-04-26 14:35 | 47.34034 | 8.62210 | 3422 ft | 121 kts | 139° |
| 2026-04-26 14:35 | 47.33376 | 8.62978 | 3566 ft | 121 kts | 137° |
| 2026-04-26 14:35 | 47.32721 | 8.63802 | 3604 ft | 128 kts | 141° |
| 2026-04-26 14:35 | 47.31967 | 8.64550 | 3647 ft | 133 kts | 143° |
| 2026-04-26 14:36 | 47.31226 | 8.65320 | 3659 ft | 131 kts | 143° |
| 2026-04-26 14:36 | 47.30516 | 8.66133 | 3731 ft | 128 kts | 139° |
| 2026-04-26 14:36 | 47.29837 | 8.66993 | 3824 ft | 130 kts | 135° |
| 2026-04-26 14:36 | 47.29197 | 8.67925 | 3856 ft | 130 kts | 131° |
| 2026-04-26 14:37 | 47.28587 | 8.68912 | 3892 ft | 130 kts | 129° |
| 2026-04-26 14:37 | 47.28029 | 8.69952 | 3959 ft | 130 kts | 126° |
| 2026-04-26 14:37 | 47.27414 | 8.70961 | 3965 ft | 133 kts | 133° |
| 2026-04-26 14:37 | 47.26740 | 8.71941 | 3898 ft | 137 kts | 135° |
| 2026-04-26 14:38 | 47.26054 | 8.72899 | 3891 ft | 133 kts | 134° |
| 2026-04-26 14:38 | 47.25402 | 8.73815 | 3936 ft | 127 kts | 133° |
| 2026-04-26 14:38 | 47.24778 | 8.74732 | 4091 ft | 126 kts | 132° |
| 2026-04-26 14:38 | 47.24391 | 8.75369 | 4124 ft | 129 kts | 127° |
| 2026-04-26 14:39 | 47.23596 | 8.76783 | 4122 ft | 137 kts | 133° |
| 2026-04-26 14:39 | 47.22876 | 8.77712 | 4012 ft | 139 kts | 140° |
| 2026-04-26 14:39 | 47.22068 | 8.78471 | 3965 ft | 138 kts | 151° |
| 2026-04-26 14:39 | 47.21186 | 8.78953 | 4004 ft | 133 kts | 163° |
| 2026-04-26 14:40 | 47.20281 | 8.79067 | 4128 ft | 132 kts | 185° |
| 2026-04-26 14:40 | 47.19348 | 8.78879 | 4201 ft | 139 kts | 191° |
| 2026-04-26 14:40 | 47.18462 | 8.78501 | 4253 ft | 139 kts | 199° |
| 2026-04-26 14:40 | 47.17869 | 8.78116 | 4243 ft | 138 kts | 211° |
| 2026-04-26 14:41 | 47.17023 | 8.76767 | 4070 ft | 135 kts | 246° |
| 2026-04-26 14:41 | 47.16778 | 8.75466 | 3824 ft | 130 kts | 274° |
| 2026-04-26 14:41 | 47.16864 | 8.74213 | 3506 ft | 114 kts | 287° |
| 2026-04-26 14:41 | 47.17046 | 8.73201 | 3167 ft | 93 kts | 283° |
| 2026-04-26 14:42 | 47.17129 | 8.72614 | 2925 ft | 81 kts | 272° |
| 2026-04-26 14:42 | 47.17181 | 8.71949 | 2736 ft | 46 kts | 259° |
| 2026-04-26 14:42 | 47.17119 | 8.71608 | 2675 ft | 27 kts | 239° |
| 2026-04-26 14:42 | 47.17047 | 8.71436 | 2626 ft | 11 kts | 218° |
| 2026-04-26 14:43 | 47.17021 | 8.71394 | 2632 ft | 4 kts | 144° |
| 2026-04-26 14:43 | 47.17009 | 8.71400 | 2620 ft | 3 kts | 110° |
| 2026-04-26 14:43 | 47.17005 | 8.71398 | 2618 ft | 0 kts | 123° |
| 2026-04-26 14:43 | 47.17000 | 8.71398 | 2617 ft | 0 kts | 114° |